sensor_id;sensor_type;location;lat;lon;timestamp;pressure;altitude;pressure_sealevel;temperature;humidity
20983;BME280;10650;51.528;6.748;2023-02-18T00:01:32;102014.34;;;12.31;89.66
20983;BME280;10650;51.528;6.748;2023-02-18T00:04:00;102016.09;;;12.31;89.46
20983;BME280;10650;51.528;6.748;2023-02-18T00:06:31;102008.06;;;12.32;89.46
20983;BME280;10650;51.528;6.748;2023-02-18T00:08:59;102010.72;;;12.29;89.21
20983;BME280;10650;51.528;6.748;2023-02-18T00:11:30;102017.00;;;12.29;89.49
20983;BME280;10650;51.528;6.748;2023-02-18T00:14:00;102008.06;;;12.27;89.27
20983;BME280;10650;51.528;6.748;2023-02-18T00:16:29;101999.13;;;12.30;89.32
20983;BME280;10650;51.528;6.748;2023-02-18T00:18:58;101998.25;;;12.31;89.30
20983;BME280;10650;51.528;6.748;2023-02-18T00:21:28;101990.22;;;12.31;89.28
20983;BME280;10650;51.528;6.748;2023-02-18T00:23:57;101997.38;;;12.34;88.99
20983;BME280;10650;51.528;6.748;2023-02-18T00:26:25;101996.47;;;12.30;89.16
20983;BME280;10650;51.528;6.748;2023-02-18T00:28:53;101983.06;;;12.30;89.15
20983;BME280;10650;51.528;6.748;2023-02-18T00:31:23;101991.97;;;12.29;89.29
20983;BME280;10650;51.528;6.748;2023-02-18T00:33:51;101991.09;;;12.32;89.21
20983;BME280;10650;51.528;6.748;2023-02-18T00:36:21;101995.59;;;12.33;89.37
20983;BME280;10650;51.528;6.748;2023-02-18T00:38:51;101983.06;;;12.35;89.29
20983;BME280;10650;51.528;6.748;2023-02-18T00:41:23;101985.75;;;12.36;89.15
20983;BME280;10650;51.528;6.748;2023-02-18T00:43:51;101974.16;;;12.34;89.03
20983;BME280;10650;51.528;6.748;2023-02-18T00:46:19;101962.53;;;12.35;89.03
20983;BME280;10650;51.528;6.748;2023-02-18T00:48:48;101969.66;;;12.28;88.87
20983;BME280;10650;51.528;6.748;2023-02-18T00:51:16;101968.78;;;12.29;89.41
20983;BME280;10650;51.528;6.748;2023-02-18T00:53:44;101954.47;;;12.31;89.36
20983;BME280;10650;51.528;6.748;2023-02-18T00:56:11;101950.91;;;12.32;89.25
20983;BME280;10650;51.528;6.748;2023-02-18T00:58:41;101948.22;;;12.33;89.33
20983;BME280;10650;51.528;6.748;2023-02-18T01:01:10;101951.78;;;12.32;89.47
20983;BME280;10650;51.528;6.748;2023-02-18T01:03:39;101954.47;;;12.32;89.24
20983;BME280;10650;51.528;6.748;2023-02-18T01:06:08;101950.91;;;12.33;89.12
20983;BME280;10650;51.528;6.748;2023-02-18T01:08:37;101949.16;;;12.34;89.00
20983;BME280;10650;51.528;6.748;2023-02-18T01:11:06;101950.91;;;12.32;89.24
20983;BME280;10650;51.528;6.748;2023-02-18T01:13:35;101947.34;;;12.28;89.23
20983;BME280;10650;51.528;6.748;2023-02-18T01:16:04;101941.97;;;12.26;89.45
20983;BME280;10650;51.528;6.748;2023-02-18T01:18:33;101939.25;;;12.25;89.55
20983;BME280;10650;51.528;6.748;2023-02-18T01:21:01;101950.03;;;12.26;89.30
20983;BME280;10650;51.528;6.748;2023-02-18T01:23:30;101954.47;;;12.24;89.55
20983;BME280;10650;51.528;6.748;2023-02-18T01:25:58;101950.03;;;12.28;89.63
20983;BME280;10650;51.528;6.748;2023-02-18T01:28:26;101929.47;;;12.25;89.72
20983;BME280;10650;51.528;6.748;2023-02-18T01:30:53;101932.16;;;12.27;89.55
20983;BME280;10650;51.528;6.748;2023-02-18T01:33:23;101928.59;;;12.26;89.73
20983;BME280;10650;51.528;6.748;2023-02-18T01:35:51;101933.91;;;12.22;89.80
20983;BME280;10650;51.528;6.748;2023-02-18T01:38:19;101925.88;;;12.20;89.89
20983;BME280;10650;51.528;6.748;2023-02-18T01:40:48;101926.78;;;12.19;89.91
20983;BME280;10650;51.528;6.748;2023-02-18T01:43:18;101920.50;;;12.17;90.02
20983;BME280;10650;51.528;6.748;2023-02-18T01:45:59;101918.69;;;12.16;90.37
20983;BME280;10650;51.528;6.748;2023-02-18T01:48:33;101920.50;;;12.17;90.49
20983;BME280;10650;51.528;6.748;2023-02-18T01:51:09;101920.50;;;12.20;90.26
20983;BME280;10650;51.528;6.748;2023-02-18T01:53:43;101921.41;;;12.19;90.68
20983;BME280;10650;51.528;6.748;2023-02-18T01:56:17;101920.50;;;12.20;90.53
20983;BME280;10650;51.528;6.748;2023-02-18T01:58:48;101911.53;;;12.12;90.87
20983;BME280;10650;51.528;6.748;2023-02-18T02:01:17;101912.44;;;12.09;90.73
20983;BME280;10650;51.528;6.748;2023-02-18T02:03:47;101912.44;;;12.09;90.90
20983;BME280;10650;51.528;6.748;2023-02-18T02:06:16;101907.09;;;12.13;91.16
20983;BME280;10650;51.528;6.748;2023-02-18T02:08:46;101896.38;;;12.11;90.79
20983;BME280;10650;51.528;6.748;2023-02-18T02:11:23;101896.38;;;12.11;91.10
20983;BME280;10650;51.528;6.748;2023-02-18T02:14:07;101901.75;;;12.14;90.95
20983;BME280;10650;51.528;6.748;2023-02-18T02:16:41;101908.00;;;12.16;90.68
20983;BME280;10650;51.528;6.748;2023-02-18T02:19:49;101900.88;;;12.15;90.92
20983;BME280;10650;51.528;6.748;2023-02-18T02:22:52;101891.91;;;12.10;90.89
20983;BME280;10650;51.528;6.748;2023-02-18T02:25:53;101891.91;;;12.10;91.04
20983;BME280;10650;51.528;6.748;2023-02-18T02:31:46;101886.53;;;12.10;91.06
20983;BME280;10650;51.528;6.748;2023-02-18T02:34:33;101884.75;;;12.07;91.56
20983;BME280;10650;51.528;6.748;2023-02-18T02:37:11;101888.31;;;12.05;91.48
20983;BME280;10650;51.528;6.748;2023-02-18T02:39:49;101883.81;;;11.96;92.08
20983;BME280;10650;51.528;6.748;2023-02-18T02:42:25;101877.59;;;11.99;92.41
20983;BME280;10650;51.528;6.748;2023-02-18T02:45:03;101876.69;;;12.00;92.56
20983;BME280;10650;51.528;6.748;2023-02-18T02:47:37;101871.34;;;11.97;92.81
20983;BME280;10650;51.528;6.748;2023-02-18T02:50:12;101871.34;;;11.97;93.26
20983;BME280;10650;51.528;6.748;2023-02-18T02:52:45;101873.09;;;11.94;93.57
20983;BME280;10650;51.528;6.748;2023-02-18T02:55:14;101862.38;;;11.94;93.83
20983;BME280;10650;51.528;6.748;2023-02-18T02:57:48;101861.50;;;11.96;93.45
20983;BME280;10650;51.528;6.748;2023-02-18T03:00:19;101858.84;;;11.94;93.74
20983;BME280;10650;51.528;6.748;2023-02-18T03:03:00;101843.59;;;11.91;94.34
20983;BME280;10650;51.528;6.748;2023-02-18T03:05:43;101834.69;;;11.92;94.13
20983;BME280;10650;51.528;6.748;2023-02-18T03:08:29;101827.53;;;11.91;94.48
20983;BME280;10650;51.528;6.748;2023-02-18T03:11:02;101832.91;;;11.91;94.53
20983;BME280;10650;51.528;6.748;2023-02-18T03:13:41;101824.84;;;11.90;94.72
20983;BME280;10650;51.528;6.748;2023-02-18T03:16:17;101822.19;;;11.84;94.77
20983;BME280;10650;51.528;6.748;2023-02-18T03:18:55;101822.19;;;11.85;94.79
20983;BME280;10650;51.528;6.748;2023-02-18T03:21:26;101806.13;;;11.84;94.98
20983;BME280;10650;51.528;6.748;2023-02-18T03:23:58;101808.78;;;11.82;95.28
20983;BME280;10650;51.528;6.748;2023-02-18T03:26:28;101802.56;;;11.86;94.97
20983;BME280;10650;51.528;6.748;2023-02-18T03:29:00;101800.75;;;11.84;94.96
20983;BME280;10650;51.528;6.748;2023-02-18T03:31:30;101792.72;;;11.82;95.33
20983;BME280;10650;51.528;6.748;2023-02-18T03:34:03;101776.66;;;11.84;95.28
20983;BME280;10650;51.528;6.748;2023-02-18T03:36:34;101786.44;;;11.83;95.03
20983;BME280;10650;51.528;6.748;2023-02-18T03:39:04;101786.44;;;11.77;95.59
20983;BME280;10650;51.528;6.748;2023-02-18T03:41:34;101782.88;;;11.75;95.41
20983;BME280;10650;51.528;6.748;2023-02-18T03:44:03;101786.44;;;11.77;95.47
20983;BME280;10650;51.528;6.748;2023-02-18T03:46:33;101776.63;;;11.74;95.85
20983;BME280;10650;51.528;6.748;2023-02-18T03:49:02;101781.09;;;11.78;95.59
20983;BME280;10650;51.528;6.748;2023-02-18T03:51:30;101773.94;;;11.76;95.84
20983;BME280;10650;51.528;6.748;2023-02-18T03:53:59;101772.19;;;11.80;96.05
20983;BME280;10650;51.528;6.748;2023-02-18T03:56:27;101765.91;;;11.77;95.98
20983;BME280;10650;51.528;6.748;2023-02-18T03:58:55;101762.34;;;11.80;95.86
20983;BME280;10650;51.528;6.748;2023-02-18T04:01:22;101768.59;;;11.79;95.54
20983;BME280;10650;51.528;6.748;2023-02-18T04:03:50;101766.84;;;11.81;95.86
20983;BME280;10650;51.528;6.748;2023-02-18T04:06:20;101764.16;;;11.83;95.58
20983;BME280;10650;51.528;6.748;2023-02-18T04:08:49;101758.81;;;11.84;95.40
20983;BME280;10650;51.528;6.748;2023-02-18T04:11:18;101756.13;;;11.83;95.71
20983;BME280;10650;51.528;6.748;2023-02-18T04:13:46;101747.22;;;11.84;95.41
20983;BME280;10650;51.528;6.748;2023-02-18T04:16:14;101748.09;;;11.84;95.38
20983;BME280;10650;51.528;6.748;2023-02-18T04:18:41;101738.28;;;11.86;95.14
20983;BME280;10650;51.528;6.748;2023-02-18T04:21:09;101739.19;;;11.88;94.95
20983;BME280;10650;51.528;6.748;2023-02-18T04:23:37;101735.63;;;11.86;95.11
20983;BME280;10650;51.528;6.748;2023-02-18T04:26:05;101732.91;;;11.85;94.92
20983;BME280;10650;51.528;6.748;2023-02-18T04:28:34;101738.28;;;11.88;95.05
20983;BME280;10650;51.528;6.748;2023-02-18T04:31:02;101724.91;;;11.91;95.15
20983;BME280;10650;51.528;6.748;2023-02-18T04:33:30;101718.63;;;11.86;95.14
20983;BME280;10650;51.528;6.748;2023-02-18T04:35:58;101727.56;;;11.82;95.43
20983;BME280;10650;51.528;6.748;2023-02-18T04:38:26;101723.06;;;11.79;96.14
20983;BME280;10650;51.528;6.748;2023-02-18T04:40:54;101717.72;;;11.77;96.51
20983;BME280;10650;51.528;6.748;2023-02-18T04:43:21;101721.31;;;11.75;96.47
20983;BME280;10650;51.528;6.748;2023-02-18T04:45:50;101718.63;;;11.75;96.55
20983;BME280;10650;51.528;6.748;2023-02-18T04:48:18;101714.16;;;11.71;96.65
20983;BME280;10650;51.528;6.748;2023-02-18T04:50:46;101719.53;;;11.69;97.26
20983;BME280;10650;51.528;6.748;2023-02-18T04:53:14;101704.34;;;11.70;97.53
20983;BME280;10650;51.528;6.748;2023-02-18T04:55:42;101707.91;;;11.70;96.99
20983;BME280;10650;51.528;6.748;2023-02-18T04:58:10;101704.34;;;11.74;97.35
20983;BME280;10650;51.528;6.748;2023-02-18T05:00:38;101698.09;;;11.68;97.42
20983;BME280;10650;51.528;6.748;2023-02-18T05:03:07;101690.97;;;11.62;97.39
20983;BME280;10650;51.528;6.748;2023-02-18T05:05:34;101691.84;;;11.61;97.74
20983;BME280;10650;51.528;6.748;2023-02-18T05:08:04;101689.16;;;11.61;97.97
20983;BME280;10650;51.528;6.748;2023-02-18T05:10:32;101690.03;;;11.60;97.99
20983;BME280;10650;51.528;6.748;2023-02-18T05:12:59;101691.84;;;11.59;97.97
20983;BME280;10650;51.528;6.748;2023-02-18T05:15:27;101687.38;;;11.57;97.91
20983;BME280;10650;51.528;6.748;2023-02-18T05:17:55;101680.22;;;11.57;98.02
20983;BME280;10650;51.528;6.748;2023-02-18T05:20:24;101675.78;;;11.53;97.85
20983;BME280;10650;51.528;6.748;2023-02-18T05:22:52;101682.00;;;11.49;98.18
20983;BME280;10650;51.528;6.748;2023-02-18T05:25:20;101672.19;;;11.53;98.26
20983;BME280;10650;51.528;6.748;2023-02-18T05:27:48;101673.09;;;11.55;98.39
20983;BME280;10650;51.528;6.748;2023-02-18T05:30:15;101668.63;;;11.52;98.09
20983;BME280;10650;51.528;6.748;2023-02-18T05:32:44;101665.97;;;11.54;98.21
20983;BME280;10650;51.528;6.748;2023-02-18T05:35:12;101657.94;;;11.62;97.72
20983;BME280;10650;51.528;6.748;2023-02-18T05:37:41;101650.81;;;11.60;98.11
20983;BME280;10650;51.528;6.748;2023-02-18T05:40:11;101657.94;;;11.52;97.72
20983;BME280;10650;51.528;6.748;2023-02-18T05:42:38;101649.03;;;11.55;98.08
20983;BME280;10650;51.528;6.748;2023-02-18T05:45:07;101639.19;;;11.54;97.57
20983;BME280;10650;51.528;6.748;2023-02-18T05:47:35;101632.06;;;11.54;97.89
20983;BME280;10650;51.528;6.748;2023-02-18T05:50:04;101629.38;;;11.53;97.46
20983;BME280;10650;51.528;6.748;2023-02-18T05:52:32;101640.97;;;11.50;97.47
20983;BME280;10650;51.528;6.748;2023-02-18T05:55:02;101638.31;;;11.53;97.70
20983;BME280;10650;51.528;6.748;2023-02-18T05:57:30;101639.19;;;11.55;97.54
20983;BME280;10650;51.528;6.748;2023-02-18T05:59:58;101633.84;;;11.54;97.18
20983;BME280;10650;51.528;6.748;2023-02-18T06:02:25;101632.97;;;11.55;97.43
20983;BME280;10650;51.528;6.748;2023-02-18T06:04:53;101627.56;;;11.50;97.35
20983;BME280;10650;51.528;6.748;2023-02-18T06:07:21;101630.25;;;11.50;97.71
20983;BME280;10650;51.528;6.748;2023-02-18T06:09:49;101628.50;;;11.49;97.58
20983;BME280;10650;51.528;6.748;2023-02-18T06:12:18;101626.69;;;11.47;97.37
20983;BME280;10650;51.528;6.748;2023-02-18T06:14:46;101617.75;;;11.46;97.86
20983;BME280;10650;51.528;6.748;2023-02-18T06:17:14;101621.34;;;11.48;98.04
20983;BME280;10650;51.528;6.748;2023-02-18T06:19:44;101629.38;;;11.51;97.49
20983;BME280;10650;51.528;6.748;2023-02-18T06:22:12;101623.13;;;11.54;97.83
20983;BME280;10650;51.528;6.748;2023-02-18T06:24:39;101611.56;;;11.58;97.30
20983;BME280;10650;51.528;6.748;2023-02-18T06:27:07;101615.13;;;11.51;97.40
20983;BME280;10650;51.528;6.748;2023-02-18T06:29:36;101614.19;;;11.47;97.58
20983;BME280;10650;51.528;6.748;2023-02-18T06:32:04;101620.44;;;11.46;97.50
20983;BME280;10650;51.528;6.748;2023-02-18T06:34:32;101632.03;;;11.39;97.94
20983;BME280;10650;51.528;6.748;2023-02-18T06:37:00;101628.47;;;11.43;98.10
20983;BME280;10650;51.528;6.748;2023-02-18T06:39:28;101635.59;;;11.41;98.31
20983;BME280;10650;51.528;6.748;2023-02-18T06:41:55;101632.94;;;11.42;98.28
20983;BME280;10650;51.528;6.748;2023-02-18T06:44:23;101644.50;;;11.45;98.15
20983;BME280;10650;51.528;6.748;2023-02-18T06:46:52;101641.84;;;11.35;98.06
20983;BME280;10650;51.528;6.748;2023-02-18T06:49:20;101643.59;;;11.32;98.61
20983;BME280;10650;51.528;6.748;2023-02-18T06:51:48;101625.78;;;11.34;98.90
20983;BME280;10650;51.528;6.748;2023-02-18T06:54:16;101637.38;;;11.31;98.90
20983;BME280;10650;51.528;6.748;2023-02-18T06:56:43;101627.53;;;11.33;98.99
20983;BME280;10650;51.528;6.748;2023-02-18T06:59:11;101631.13;;;11.31;98.89
20983;BME280;10650;51.528;6.748;2023-02-18T07:01:39;101620.44;;;11.31;98.91
20983;BME280;10650;51.528;6.748;2023-02-18T07:04:08;101610.63;;;11.25;98.95
20983;BME280;10650;51.528;6.748;2023-02-18T07:06:36;101631.09;;;11.24;99.20
20983;BME280;10650;51.528;6.748;2023-02-18T07:09:05;101625.75;;;11.26;99.11
20983;BME280;10650;51.528;6.748;2023-02-18T07:11:33;101617.72;;;11.23;99.34
20983;BME280;10650;51.528;6.748;2023-02-18T07:14:01;101629.34;;;11.25;99.62
20983;BME280;10650;51.528;6.748;2023-02-18T07:16:28;101629.34;;;11.20;98.95
20983;BME280;10650;51.528;6.748;2023-02-18T07:18:56;101637.34;;;11.23;99.28
20983;BME280;10650;51.528;6.748;2023-02-18T07:21:25;101634.69;;;11.27;98.97
20983;BME280;10650;51.528;6.748;2023-02-18T07:23:53;101645.38;;;11.25;98.94
20983;BME280;10650;51.528;6.748;2023-02-18T07:26:21;101640.91;;;11.24;98.82
20983;BME280;10650;51.528;6.748;2023-02-18T07:28:49;101642.72;;;11.22;99.01
20983;BME280;10650;51.528;6.748;2023-02-18T07:31:16;101642.66;;;11.17;99.26
20983;BME280;10650;51.528;6.748;2023-02-18T07:33:44;101639.09;;;11.14;99.31
20983;BME280;10650;51.528;6.748;2023-02-18T07:36:12;101648.94;;;11.21;99.71
20983;BME280;10650;51.528;6.748;2023-02-18T07:38:41;101656.97;;;11.21;99.08
20983;BME280;10650;51.528;6.748;2023-02-18T07:41:15;101642.72;;;11.22;98.98
20983;BME280;10650;51.528;6.748;2023-02-18T07:43:44;101640.03;;;11.23;98.71
20983;BME280;10650;51.528;6.748;2023-02-18T07:46:12;101639.13;;;11.20;97.95
20983;BME280;10650;51.528;6.748;2023-02-18T07:48:40;101632.00;;;11.25;98.09
20983;BME280;10650;51.528;6.748;2023-02-18T07:51:09;101638.25;;;11.27;97.63
20983;BME280;10650;51.528;6.748;2023-02-18T07:53:38;101646.25;;;11.25;97.11
20983;BME280;10650;51.528;6.748;2023-02-18T07:56:08;101638.25;;;11.27;96.56
20983;BME280;10650;51.528;6.748;2023-02-18T07:58:37;101647.19;;;11.41;96.00
20983;BME280;10650;51.528;6.748;2023-02-18T08:01:06;101664.13;;;11.36;95.29
20983;BME280;10650;51.528;6.748;2023-02-18T08:03:34;101657.88;;;11.35;94.94
20983;BME280;10650;51.528;6.748;2023-02-18T08:06:04;101659.69;;;11.47;94.46
20983;BME280;10650;51.528;6.748;2023-02-18T08:08:33;101665.03;;;11.50;94.01
20983;BME280;10650;51.528;6.748;2023-02-18T08:11:04;101667.72;;;11.47;93.96
20983;BME280;10650;51.528;6.748;2023-02-18T08:13:46;101657.94;;;11.49;94.07
20983;BME280;10650;51.528;6.748;2023-02-18T08:16:15;101665.97;;;11.52;94.49
20983;BME280;10650;51.528;6.748;2023-02-18T08:18:44;101665.94;;;11.48;94.84
20983;BME280;10650;51.528;6.748;2023-02-18T08:21:13;101648.97;;;11.46;94.31
20983;BME280;10650;51.528;6.748;2023-02-18T08:23:41;101657.00;;;11.42;93.88
20983;BME280;10650;51.528;6.748;2023-02-18T08:26:09;101660.59;;;11.49;93.95
20983;BME280;10650;51.528;6.748;2023-02-18T08:28:38;101658.81;;;11.43;92.76
20983;BME280;10650;51.528;6.748;2023-02-18T08:31:16;101660.56;;;11.43;92.79
20983;BME280;10650;51.528;6.748;2023-02-18T08:33:45;101670.41;;;11.47;92.79
20983;BME280;10650;51.528;6.748;2023-02-18T08:36:13;101656.13;;;11.48;92.04
20983;BME280;10650;51.528;6.748;2023-02-18T08:38:41;101665.03;;;11.50;92.22
20983;BME280;10650;51.528;6.748;2023-02-18T08:41:09;101660.59;;;11.48;91.51
20983;BME280;10650;51.528;6.748;2023-02-18T08:43:37;101655.22;;;11.41;91.60
20983;BME280;10650;51.528;6.748;2023-02-18T08:46:06;101659.69;;;11.39;91.93
20983;BME280;10650;51.528;6.748;2023-02-18T08:48:41;101668.59;;;11.37;91.76
20983;BME280;10650;51.528;6.748;2023-02-18T08:51:11;101654.34;;;11.38;91.92
20983;BME280;10650;51.528;6.748;2023-02-18T08:53:39;101663.25;;;11.32;92.12
20983;BME280;10650;51.528;6.748;2023-02-18T08:56:08;101663.19;;;11.24;91.72
20983;BME280;10650;51.528;6.748;2023-02-18T08:58:36;101673.88;;;11.24;91.62
20983;BME280;10650;51.528;6.748;2023-02-18T09:01:07;101653.38;;;11.17;91.04
20983;BME280;10650;51.528;6.748;2023-02-18T09:03:36;101656.94;;;11.15;90.43
20983;BME280;10650;51.528;6.748;2023-02-18T09:06:04;101663.19;;;11.12;90.43
20983;BME280;10650;51.528;6.748;2023-02-18T09:08:32;101644.47;;;11.14;90.34
20983;BME280;10650;51.528;6.748;2023-02-18T09:11:01;101656.09;;;11.22;90.17
20983;BME280;10650;51.528;6.748;2023-02-18T09:13:31;101652.47;;;11.15;89.68
20983;BME280;10650;51.528;6.748;2023-02-18T09:16:01;101662.31;;;11.16;89.28
20983;BME280;10650;51.528;6.748;2023-02-18T09:18:31;101659.59;;;11.12;89.44
20983;BME280;10650;51.528;6.748;2023-02-18T09:21:01;101662.25;;;11.10;89.17
20983;BME280;10650;51.528;6.748;2023-02-18T09:23:31;101672.06;;;11.03;88.19
20983;BME280;10650;51.528;6.748;2023-02-18T09:25:59;101673.88;;;11.07;88.69
20983;BME280;10650;51.528;6.748;2023-02-18T09:28:27;101672.06;;;11.10;88.30
20983;BME280;10650;51.528;6.748;2023-02-18T09:30:55;101661.38;;;11.14;88.01
20983;BME280;10650;51.528;6.748;2023-02-18T09:33:23;101676.53;;;11.12;87.46
20983;BME280;10650;51.528;6.748;2023-02-18T09:35:52;101661.38;;;11.17;87.04
20983;BME280;10650;51.528;6.748;2023-02-18T09:38:20;101663.19;;;11.24;87.42
20983;BME280;10650;51.528;6.748;2023-02-18T09:40:51;101659.63;;;11.25;87.25
20983;BME280;10650;51.528;6.748;2023-02-18T09:43:23;101655.22;;;11.28;86.84
20983;BME280;10650;51.528;6.748;2023-02-18T09:45:57;101655.22;;;11.29;86.38
20983;BME280;10650;51.528;6.748;2023-02-18T09:48:28;101653.41;;;11.34;86.26
20983;BME280;10650;51.528;6.748;2023-02-18T09:50:59;101648.97;;;11.36;85.95
20983;BME280;10650;51.528;6.748;2023-02-18T09:53:27;101647.19;;;11.38;85.20
20983;BME280;10650;51.528;6.748;2023-02-18T09:55:56;101646.31;;;11.35;85.24
20983;BME280;10650;51.528;6.748;2023-02-18T09:58:31;101640.97;;;11.41;85.09
20983;BME280;10650;51.528;6.748;2023-02-18T10:01:05;101648.97;;;11.41;85.49
20983;BME280;10650;51.528;6.748;2023-02-18T10:03:37;101654.34;;;11.42;84.83
20983;BME280;10650;51.528;6.748;2023-02-18T10:06:11;101659.69;;;11.36;85.50
20983;BME280;10650;51.528;6.748;2023-02-18T10:08:44;101649.84;;;11.31;86.08
20983;BME280;10650;51.528;6.748;2023-02-18T10:11:14;101652.53;;;11.34;86.80
20983;BME280;10650;51.528;6.748;2023-02-18T10:13:43;101654.34;;;11.36;86.25
20983;BME280;10650;51.528;6.748;2023-02-18T10:16:16;101661.44;;;11.34;86.72
20983;BME280;10650;51.528;6.748;2023-02-18T10:18:45;101657.00;;;11.36;86.76
20983;BME280;10650;51.528;6.748;2023-02-18T10:21:19;101657.88;;;11.38;86.66
20983;BME280;10650;51.528;6.748;2023-02-18T10:23:57;101665.91;;;11.37;86.67
20983;BME280;10650;51.528;6.748;2023-02-18T10:26:28;101665.00;;;11.30;87.09
20983;BME280;10650;51.528;6.748;2023-02-18T10:28:58;101668.53;;;11.24;87.63
20983;BME280;10650;51.528;6.748;2023-02-18T10:31:36;101667.66;;;11.21;88.35
20983;BME280;10650;51.528;6.748;2023-02-18T10:34:12;101680.16;;;11.25;88.50
20983;BME280;10650;51.528;6.748;2023-02-18T10:36:49;101680.16;;;11.22;89.01
20983;BME280;10650;51.528;6.748;2023-02-18T10:39:30;101688.13;;;11.17;88.97
20983;BME280;10650;51.528;6.748;2023-02-18T10:42:09;101688.13;;;11.16;89.27
20983;BME280;10650;51.528;6.748;2023-02-18T10:44:50;101692.59;;;11.18;90.29
20983;BME280;10650;51.528;6.748;2023-02-18T10:47:33;101696.13;;;11.08;89.86
20983;BME280;10650;51.528;6.748;2023-02-18T10:50:08;101697.03;;;11.12;90.90
20983;BME280;10650;51.528;6.748;2023-02-18T10:52:41;101694.34;;;11.04;91.00
20983;BME280;10650;51.528;6.748;2023-02-18T10:55:11;101696.13;;;11.02;91.17
20983;BME280;10650;51.528;6.748;2023-02-18T10:57:49;101699.66;;;10.95;91.45
20983;BME280;10650;51.528;6.748;2023-02-18T11:00:18;101701.41;;;10.96;91.24
20983;BME280;10650;51.528;6.748;2023-02-18T11:03:02;101704.94;;;10.90;91.21
20983;BME280;10650;51.528;6.748;2023-02-18T11:05:34;101714.78;;;10.99;90.80
20983;BME280;10650;51.528;6.748;2023-02-18T11:08:06;101708.56;;;10.98;91.27
20983;BME280;10650;51.528;6.748;2023-02-18T11:10:37;101704.97;;;10.93;91.26
20983;BME280;10650;51.528;6.748;2023-02-18T11:13:07;101706.81;;;11.02;91.24
20983;BME280;10650;51.528;6.748;2023-02-18T11:15:36;101705.03;;;11.02;92.03
20983;BME280;10650;51.528;6.748;2023-02-18T11:18:26;101701.50;;;11.08;92.04
20983;BME280;10650;51.528;6.748;2023-02-18T11:20:57;101703.25;;;11.04;92.01
20983;BME280;10650;51.528;6.748;2023-02-18T11:23:27;101697.03;;;11.10;92.95
20983;BME280;10650;51.528;6.748;2023-02-18T11:25:58;101694.41;;;11.16;92.82
20983;BME280;10650;51.528;6.748;2023-02-18T11:31:20;101704.19;;;11.19;92.90
20983;BME280;10650;51.528;6.748;2023-02-18T11:33:51;101697.97;;;11.18;93.10
20983;BME280;10650;51.528;6.748;2023-02-18T11:36:22;101711.34;;;11.21;93.19
20983;BME280;10650;51.528;6.748;2023-02-18T11:38:54;101701.50;;;11.14;93.08
20983;BME280;10650;51.528;6.748;2023-02-18T11:41:30;101696.13;;;11.03;93.54
20983;BME280;10650;51.528;6.748;2023-02-18T11:44:00;101701.47;;;11.05;93.87
20983;BME280;10650;51.528;6.748;2023-02-18T11:46:28;101697.03;;;11.08;94.05
20983;BME280;10650;51.528;6.748;2023-02-18T11:49:10;101695.25;;;11.07;93.89
20983;BME280;10650;51.528;6.748;2023-02-18T11:51:39;101697.88;;;11.01;94.38
20983;BME280;10650;51.528;6.748;2023-02-18T11:54:22;101697.03;;;11.08;94.75
20983;BME280;10650;51.528;6.748;2023-02-18T11:56:54;101699.69;;;11.10;94.98
20983;BME280;10650;51.528;6.748;2023-02-18T11:59:23;101696.16;;;11.14;94.69
20983;BME280;10650;51.528;6.748;2023-02-18T12:01:54;101700.63;;;11.14;94.86
20983;BME280;10650;51.528;6.748;2023-02-18T12:04:25;101699.75;;;11.18;94.99
20983;BME280;10650;51.528;6.748;2023-02-18T12:07:05;101697.06;;;11.18;94.95
20983;BME280;10650;51.528;6.748;2023-02-18T12:09:43;101693.53;;;11.23;94.96
20983;BME280;10650;51.528;6.748;2023-02-18T12:12:15;101694.41;;;11.29;95.12
20983;BME280;10650;51.528;6.748;2023-02-18T12:14:44;101706.03;;;11.28;94.98
20983;BME280;10650;51.528;6.748;2023-02-18T12:17:31;101697.06;;;11.19;94.82
20983;BME280;10650;51.528;6.748;2023-02-18T12:20:31;101691.72;;;11.16;94.86
20983;BME280;10650;51.528;6.748;2023-02-18T12:23:11;101693.47;;;11.14;95.14
20983;BME280;10650;51.528;6.748;2023-02-18T12:25:50;101685.44;;;11.14;95.50
20983;BME280;10650;51.528;6.748;2023-02-18T12:28:30;101683.72;;;11.21;95.59
20983;BME280;10650;51.528;6.748;2023-02-18T12:31:29;101687.25;;;11.18;96.12
20983;BME280;10650;51.528;6.748;2023-02-18T12:34:16;101679.25;;;11.24;95.94
20983;BME280;10650;51.528;6.748;2023-02-18T12:36:54;101676.63;;;11.34;95.85
20983;BME280;10650;51.528;6.748;2023-02-18T12:39:34;101669.47;;;11.33;96.13
20983;BME280;10650;51.528;6.748;2023-02-18T12:42:30;101678.41;;;11.41;95.64
20983;BME280;10650;51.528;6.748;2023-02-18T12:45:16;101677.53;;;11.40;95.80
20983;BME280;10650;51.528;6.748;2023-02-18T12:48:04;101675.75;;;11.46;95.58
20983;BME280;10650;51.528;6.748;2023-02-18T12:50:58;101676.66;;;11.48;95.85
20983;BME280;10650;51.528;6.748;2023-02-18T12:53:43;101675.75;;;11.47;95.14
20983;BME280;10650;51.528;6.748;2023-02-18T12:56:37;101673.06;;;11.39;95.12
20983;BME280;10650;51.528;6.748;2023-02-18T12:59:18;101667.72;;;11.38;96.02
20983;BME280;10650;51.528;6.748;2023-02-18T13:01:54;101665.91;;;11.38;96.01
20983;BME280;10650;51.528;6.748;2023-02-18T13:04:32;101669.47;;;11.36;96.35
20983;BME280;10650;51.528;6.748;2023-02-18T13:07:23;101665.03;;;11.41;96.25
20983;BME280;10650;51.528;6.748;2023-02-18T13:10:31;101665.91;;;11.46;96.41
20983;BME280;10650;51.528;6.748;2023-02-18T13:13:07;101680.22;;;11.51;96.21
20983;BME280;10650;51.528;6.748;2023-02-18T13:15:41;101683.78;;;11.52;95.94
20983;BME280;10650;51.528;6.748;2023-02-18T13:18:14;101673.97;;;11.51;95.86
20983;BME280;10650;51.528;6.748;2023-02-18T13:20:46;101674.88;;;11.50;96.17